CheckWX is a tool to help pilots better visualize weather data.  It is not intended as a substitute for an official pre-flight weather briefing.

09:08:19 UTC

KGVL METAR
Lee Gilmer Memorial Airport
Gainesville, Georgia, USA
Current

15 mins ago

KGVL 230853Z AUTO 29004KT 10SM CLR 17/17 A3014 RMK AO2 SLP192 T01720167 58005
Observed
Sep-23 @ 08:53 UTC
Wind
  • 290° at 4 KTS
Visibility
10 SM
Flight Rules
VFR
Cloud Levels
  • Clear skies
Temperature
17°C / 63°F
Dewpoint
17°C / 63°F
Humidity
100%
Altimeter
30.14" Hg
Pressure
1020.62 hPa
Previous

1 hour ago

KGVL 230753Z AUTO 32003KT 10SM CLR 17/17 A3015 RMK AO2 SLP194 T01720167
Observed
Sep-23 @ 07:53 UTC
Wind
  • 320° at 3 KTS
Visibility
10 SM
Flight Rules
VFR
Cloud Levels
  • Clear skies
Temperature
17°C / 63°F
Dewpoint
17°C / 63°F
Humidity
100%
Altimeter
30.15" Hg
Pressure
1021.02 hPa
Previous

2 hours ago

KGVL 230653Z AUTO 00000KT 10SM CLR 18/17 A3016 RMK AO2 SLP197 T01780167
Observed
Sep-23 @ 06:53 UTC
Visibility
10 SM
Flight Rules
VFR
Cloud Levels
  • Clear skies
Temperature
18°C / 64°F
Dewpoint
17°C / 63°F
Humidity
94%
Altimeter
30.16" Hg
Pressure
1021.32 hPa